Home > Products > Valid Products > TAF

000
FTUS45 KGGW 202300
TAFGDV
TAF
KGDV 202322Z 2100/2124 35013G19KT P6SM SCT080
     FM210100 VRB06KT P6SM SCT150
     FM211600 03007KT P6SM FEW100
      AMD LTD TO CLD VIS AND WIND=



000
FTUS45 KGGW 202300
TAFOLF
TAF
KOLF 202322Z 2100/2124 34010KT P6SM SCT100
     FM210200 VRB03KT P6SM FEW100
     FM211200 06009KT P6SM SCT150
     FM212000 07005KT P6SM FEW090=



000
FTUS45 KGGW 202300
TAFGGW
TAF
KGGW 202322Z 2100/2124 35011KT P6SM FEW070 SCT100
     FM210200 VRB03KT P6SM SCT150
     FM211200 06010KT P6SM FEW250
     FM211900 12008KT P6SM FEW090=



000
FTUS45 KGGW 202300
TAFOLF
TAF
KOLF 202322Z 2100/2124 34010KT P6SM SCT100
     FM210200 VRB03KT P6SM FEW100
     FM211200 06009KT P6SM SCT150
     FM212000 07005KT P6SM FEW090=



000
FTUS45 KGGW 202300
TAFGDV
TAF
KGDV 202322Z 2100/2124 35013G19KT P6SM SCT080
     FM210100 VRB06KT P6SM SCT150
     FM211600 03007KT P6SM FEW100
      AMD LTD TO CLD VIS AND WIND=



000
FTUS45 KGGW 202300
TAFSDY
TAF
KSDY 202322Z 2100/2124 34013KT P6SM SCT090
     FM210100 VRB04KT P6SM SCT150
     FM211400 03007KT P6SM FEW100
      AMD LTD TO CLD VIS AND WIND=



000
FTUS45 KGGW 202300
TAFGDV
TAF
KGDV 202322Z 2100/2124 35013G19KT P6SM SCT080
     FM210100 VRB06KT P6SM SCT150
     FM211600 03007KT P6SM FEW100
      AMD LTD TO CLD VIS AND WIND=



000
FTUS45 KGGW 202300
TAFOLF
TAF
KOLF 202322Z 2100/2124 34010KT P6SM SCT100
     FM210200 VRB03KT P6SM FEW100
     FM211200 06009KT P6SM SCT150
     FM212000 07005KT P6SM FEW090=



000
FTUS45 KGGW 202300
TAFGDV
TAF
KGDV 202322Z 2100/2124 35013G19KT P6SM SCT080
     FM210100 VRB06KT P6SM SCT150
     FM211600 03007KT P6SM FEW100
      AMD LTD TO CLD VIS AND WIND=



000
FTUS45 KGGW 202300
TAFSDY
TAF
KSDY 202322Z 2100/2124 34013KT P6SM SCT090
     FM210100 VRB04KT P6SM SCT150
     FM211400 03007KT P6SM FEW100
      AMD LTD TO CLD VIS AND WIND=



000
FTUS45 KGGW 202300
TAFGGW
TAF
KGGW 202322Z 2100/2124 35011KT P6SM FEW070 SCT100
     FM210200 VRB03KT P6SM SCT150
     FM211200 06010KT P6SM FEW250
     FM211900 12008KT P6SM FEW090=



000
FTUS45 KGGW 202300
TAFOLF
TAF
KOLF 202322Z 2100/2124 34010KT P6SM SCT100
     FM210200 VRB03KT P6SM FEW100
     FM211200 06009KT P6SM SCT150
     FM212000 07005KT P6SM FEW090=



000
FTUS45 KGGW 201700
TAFOLF
TAF
KOLF 201722Z 2018/2118 32013KT P6SM BKN060
     FM210000 33012KT P6SM SCT070
     FM210300 VRB03KT P6SM SCT200
     FM211200 06009KT P6SM SCT250=



000
FTUS45 KGGW 201700
TAFGDV
TAF
KGDV 201722Z 2018/2118 33015G23KT P6SM BKN060
     FM210000 33012KT P6SM SCT160
     FM210300 VRB06KT P6SM SCT250
      AMD LTD TO CLD VIS AND WIND=



000
FTUS45 KGGW 201700
TAFGGW
TAF
KGGW 201722Z 2018/2118 31013G19KT P6SM FEW060 SCT200
     FM210300 VRB03KT P6SM SCT190
     FM211200 06008KT P6SM FEW250=



000
FTUS45 KGGW 201700
TAFOLF
TAF
KOLF 201722Z 2018/2118 32013KT P6SM BKN060
     FM210000 33012KT P6SM SCT070
     FM210300 VRB03KT P6SM SCT200
     FM211200 06009KT P6SM SCT250=



000
FTUS45 KGGW 201700
TAFOLF
TAF
KOLF 201722Z 2018/2118 32013KT P6SM BKN060
     FM210000 33012KT P6SM SCT070
     FM210300 VRB03KT P6SM SCT200
     FM211200 06009KT P6SM SCT250=



000
FTUS45 KGGW 201700
TAFOLF
TAF
KOLF 201722Z 2018/2118 32013KT P6SM BKN060
     FM210000 33012KT P6SM SCT070
     FM210300 VRB03KT P6SM SCT200
     FM211200 06009KT P6SM SCT250=



000
FTUS45 KGGW 201700
TAFGDV
TAF
KGDV 201722Z 2018/2118 33015G23KT P6SM BKN060
     FM210000 33012KT P6SM SCT160
     FM210300 VRB06KT P6SM SCT250
      AMD LTD TO CLD VIS AND WIND=



000
FTUS45 KGGW 201700
TAFGGW
TAF
KGGW 201722Z 2018/2118 31013G19KT P6SM FEW060 SCT200
     FM210300 VRB03KT P6SM SCT190
     FM211200 06008KT P6SM FEW250=



000
FTUS45 KGGW 201700
TAFGDV
TAF
KGDV 201722Z 2018/2118 33015G23KT P6SM BKN060
     FM210000 33012KT P6SM SCT160
     FM210300 VRB06KT P6SM SCT250
      AMD LTD TO CLD VIS AND WIND=



000
FTUS45 KGGW 201700
TAFSDY
TAF
KSDY 201722Z 2018/2118 32015G22KT P6SM FEW060 SCT200
     FM210000 33012KT P6SM SCT150
     FM210300 VRB04KT P6SM SCT220
     FM211200 06008KT P6SM SCT250
      AMD LTD TO CLD VIS AND WIND=



000
FTUS45 KGGW 201700
TAFSDY
TAF
KSDY 201722Z 2018/2118 32015G22KT P6SM FEW060 SCT200
     FM210000 33012KT P6SM SCT150
     FM210300 VRB04KT P6SM SCT220
     FM211200 06008KT P6SM SCT250
      AMD LTD TO CLD VIS AND WIND=



000
FTUS45 KGGW 201700
TAFGDV
TAF
KGDV 201722Z 2018/2118 33015G23KT P6SM BKN060
     FM210000 33012KT P6SM SCT160
     FM210300 VRB06KT P6SM SCT250
      AMD LTD TO CLD VIS AND WIND=



000
FTUS45 KGGW 201100
TAFSDY
TAF
KSDY 201122Z 2012/2112 28009KT P6SM SCT120
     FM201600 32016KT P6SM SCT120
     FM210300 VRB05KT P6SM SCT100
      AMD LTD TO CLD VIS AND WIND=



000
FTUS45 KGGW 201100
TAFGDV
TAF
KGDV 201122Z 2012/2112 31007KT P6SM SCT090
     FM201600 33016KT P6SM SCT090
     FM210300 VRB05KT P6SM SCT100
      AMD LTD TO CLD VIS AND WIND=



000
FTUS45 KGGW 201100
TAFGDV
TAF
KGDV 201122Z 2012/2112 31007KT P6SM SCT090
     FM201600 33016KT P6SM SCT090
     FM210300 VRB05KT P6SM SCT100
      AMD LTD TO CLD VIS AND WIND=



000
FTUS45 KGGW 201100
TAFOLF
TAF
KOLF 201122Z 2012/2112 VRB05KT P6SM SCT090
     FM201600 33013KT P6SM SCT090
     FM210300 VRB06KT P6SM SCT090=



000
FTUS45 KGGW 201100
TAFGGW
TAF
KGGW 201122Z 2012/2112 30007KT P6SM FEW090
     FM201600 32014KT P6SM SCT090
     FM210300 VRB06KT P6SM SCT090=



000
FTUS45 KGGW 201100
TAFOLF
TAF
KOLF 201122Z 2012/2112 VRB05KT P6SM SCT090
     FM201600 33013KT P6SM SCT090
     FM210300 VRB06KT P6SM SCT090=



000
FTUS45 KGGW 200500
TAFSDY
TAF
KSDY 200526Z 2006/2106 28009KT P6SM SCT120
     FM201500 32014KT P6SM SCT120
     FM210200 34006KT P6SM SCT200
      AMD LTD TO CLD VIS AND WIND=



000
FTUS45 KGGW 200500
TAFGDV
TAF
KGDV 200526Z 2006/2106 31007KT P6SM SCT090
     FM201600 33015KT P6SM SCT090
     FM210300 35008KT P6SM SCT200
      AMD LTD TO CLD VIS AND WIND=



000
FTUS45 KGGW 200500
TAFOLF
TAF
KOLF 200526Z 2006/2106 32007KT P6SM SCT090
     FM201800 33013KT P6SM SCT090
     FM210300 VRB06KT P6SM SCT090=



000
FTUS45 KGGW 200500
TAFGDV
TAF
KGDV 200526Z 2006/2106 31007KT P6SM SCT090
     FM201600 33015KT P6SM SCT090
     FM210300 35008KT P6SM SCT200
      AMD LTD TO CLD VIS AND WIND=



000
FTUS45 KGGW 200500
TAFOLF
TAF
KOLF 200526Z 2006/2106 32007KT P6SM SCT090
     FM201800 33013KT P6SM SCT090
     FM210300 VRB06KT P6SM SCT090=



000
FTUS45 KGGW 200500
TAFOLF
TAF
KOLF 200526Z 2006/2106 32007KT P6SM SCT090
     FM201800 33013KT P6SM SCT090
     FM210300 VRB06KT P6SM SCT090=



000
FTUS45 KGGW 200500
TAFGDV
TAF
KGDV 200526Z 2006/2106 31007KT P6SM SCT090
     FM201600 33015KT P6SM SCT090
     FM210300 35008KT P6SM SCT200
      AMD LTD TO CLD VIS AND WIND=



000
FTUS45 KGGW 200500
TAFOLF
TAF
KOLF 200526Z 2006/2106 32007KT P6SM SCT090
     FM201800 33013KT P6SM SCT090
     FM210300 VRB06KT P6SM SCT090=



000
FTUS45 KGGW 200500
TAFGDV
TAF
KGDV 200526Z 2006/2106 31007KT P6SM SCT090
     FM201600 33015KT P6SM SCT090
     FM210300 35008KT P6SM SCT200
      AMD LTD TO CLD VIS AND WIND=



000
FTUS45 KGGW 200500
TAFGGW
TAF
KGGW 200526Z 2006/2106 VRB05KT P6SM FEW090
     FM201800 32012KT P6SM SCT090
     FM210300 VRB06KT P6SM SCT090=



000
FTUS45 KGGW 200500
TAFSDY
TAF
KSDY 200526Z 2006/2106 28009KT P6SM SCT120
     FM201500 32014KT P6SM SCT120
     FM210200 34006KT P6SM SCT200
      AMD LTD TO CLD VIS AND WIND=



000
FTUS45 KGGW 200500
TAFGGW
TAF
KGGW 200526Z 2006/2106 VRB05KT P6SM FEW090
     FM201800 32012KT P6SM SCT090
     FM210300 VRB06KT P6SM SCT090=



000
FTUS45 KGGW 192300
TAFOLF
TAF
KOLF 192320Z 2000/2024 35016G29KT P6SM SCT090
     FM200300 34008KT P6SM SCT090=



000
FTUS45 KGGW 192300
TAFGDV
TAF
KGDV 192320Z 2000/2024 34023G30KT P6SM SCT090
     FM200200 33010KT P6SM SCT110
     FM201600 32012G18KT P6SM SCT020
      AMD LTD TO CLD VIS AND WIND=



000
FTUS45 KGGW 192300
TAFGGW
TAF
KGGW 192320Z 2000/2024 33018G23KT P6SM BKN080
     FM200200 33008KT P6SM FEW250=



000
FTUS45 KGGW 192300
TAFSDY
TAF
KSDY 192320Z 2000/2024 32016G29KT P6SM SCT070
     FM200200 33010KT P6SM SCT110
     FM201600 33013G19KT P6SM SCT020
      AMD LTD TO CLD VIS AND WIND=



000
FTUS45 KGGW 192300
TAFOLF
TAF
KOLF 192320Z 2000/2024 35016G29KT P6SM SCT090
     FM200300 34008KT P6SM SCT090=



000
FTUS45 KGGW 192300
TAFGDV
TAF
KGDV 192320Z 2000/2024 34023G30KT P6SM SCT090
     FM200200 33010KT P6SM SCT110
     FM201600 32012G18KT P6SM SCT020
      AMD LTD TO CLD VIS AND WIND=



000
FTUS45 KGGW 191700
TAFOLF
TAF
KOLF 191738Z 1918/2018 33022G30KT P6SM BKN040
     FM192200 34020G30KT P6SM SCT050
     FM200300 34008KT P6SM SCT090=



000
FTUS45 KGGW 191700
TAFGDV
TAF
KGDV 191738Z 1918/2018 32020G30KT P6SM BKN040
     FM200200 33010KT P6SM SCT110
      AMD LTD TO CLD VIS AND WIND=



000
FTUS45 KGGW 191700
TAFOLF
TAF
KOLF 191738Z 1918/2018 33022G30KT P6SM BKN040
     FM192200 34020G30KT P6SM SCT050
     FM200300 34008KT P6SM SCT090=



000
FTUS45 KGGW 191700
TAFGGW
TAF
KGGW 191738Z 1918/2018 33020G30KT P6SM SCT040
     FM200200 33008KT P6SM FEW250=



000
FTUS45 KGGW 191700
TAFSDY
TAF
KSDY 191738Z 1918/2018 32020G30KT P6SM BKN040
     FM200200 33010KT P6SM SCT110
      AMD LTD TO CLD VIS AND WIND=



000
FTUS45 KGGW 191700
TAFGDV
TAF
KGDV 191738Z 1918/2018 32020G30KT P6SM BKN040
     FM200200 33010KT P6SM SCT110
      AMD LTD TO CLD VIS AND WIND=



000
FTUS45 KGGW 191400 AAA
TAFGGW
TAF AMD
KGGW 191455Z 1915/2012 31015G25KT P6SM SCT025
     FM191700 33020G30KT P6SM SCT050
     FM200300 34012KT P6SM SCT070
     FM200600 VRB06KT P6SM SCT080=



000
FTUS45 KGGW 191100
TAFGDV
TAF
KGDV 191133Z 1912/2012 28016KT P6SM BKN060
     FM191500 32020G30KT P6SM BKN050
     FM200000 34019G28KT P6SM SCT090
     FM200600 32008KT P6SM SCT080
      AMD LTD TO CLD VIS AND WIND=



000
FTUS45 KGGW 191100
TAFGDV
TAF
KGDV 191133Z 1912/2012 28016KT P6SM BKN060
     FM191500 32020G30KT P6SM BKN050
     FM200000 34019G28KT P6SM SCT090
     FM200600 32008KT P6SM SCT080
      AMD LTD TO CLD VIS AND WIND=



000
FTUS45 KGGW 191100
TAFGGW
TAF
KGGW 191133Z 1912/2012 30017KT P6SM SCT025
      TEMPO 1912/1913 BKN025
     FM191300 33020G30KT P6SM BKN025
     FM192000 33020G30KT P6SM BKN050
     FM200300 34012KT P6SM SCT070
     FM200600 VRB06KT P6SM SCT080=



000
FTUS45 KGGW 191100
TAFOLF
TAF
KOLF 191133Z 1912/2012 28011KT P6SM BKN023
     FM191400 33021G30KT P6SM BKN025
     FM192000 33020G30KT P6SM BKN050
     FM200000 34018G27KT P6SM SCT130
     FM200600 VRB06KT P6SM BKN070=



000
FTUS45 KGGW 191100
TAFOLF
TAF
KOLF 191133Z 1912/2012 28011KT P6SM BKN023
     FM191400 33021G30KT P6SM BKN025
     FM192000 33020G30KT P6SM BKN050
     FM200000 34018G27KT P6SM SCT130
     FM200600 VRB06KT P6SM BKN070=



000
FTUS45 KGGW 191100
TAFSDY
TAF
KSDY 191133Z 1912/2012 28016KT P6SM SCT025 BKN060
     FM191500 32020G30KT P6SM BKN025
     FM192000 33020G30KT P6SM BKN050
     FM200000 34019G28KT P6SM SCT130
     FM200600 32007KT P6SM SCT110
      AMD LTD TO CLD VIS AND WIND=



000
FTUS45 KGGW 190500
TAFGDV
TAF
KGDV 190528Z 1906/2006 32010KT P6SM FEW250
     FM191300 31017KT P6SM SCT050
     FM191800 32023G34KT P6SM SCT050
     FM192300 33021G32KT P6SM SCT250
     FM200300 34012KT P6SM SCT250
      AMD LTD TO CLD VIS AND WIND=



000
FTUS45 KGGW 190500
TAFSDY
TAF
KSDY 190528Z 1906/2006 30008KT P6SM FEW250
     FM191200 30017KT P6SM BKN060
     FM200000 34017G26KT P6SM SCT230
      AMD LTD TO CLD VIS AND WIND=



000
FTUS45 KGGW 190500
TAFOLF
TAF
KOLF 190528Z 1906/2006 30010KT P6SM FEW250
     FM191100 29010KT P6SM FEW050
     FM191500 31016G25KT P6SM SCT026
     FM192200 33020G31KT P6SM SCT250
     FM200300 34012KT P6SM SCT090=



000
FTUS45 KGGW 190500
TAFOLF
TAF
KOLF 190528Z 1906/2006 30010KT P6SM FEW250
     FM191100 29010KT P6SM FEW050
     FM191500 31016G25KT P6SM SCT026
     FM192200 33020G31KT P6SM SCT250
     FM200300 34012KT P6SM SCT090=



000
FTUS45 KGGW 190500
TAFGDV
TAF
KGDV 190528Z 1906/2006 32010KT P6SM FEW250
     FM191300 31017KT P6SM SCT050
     FM191800 32023G34KT P6SM SCT050
     FM192300 33021G32KT P6SM SCT250
     FM200300 34012KT P6SM SCT250
      AMD LTD TO CLD VIS AND WIND=



000
FTUS45 KGGW 190500
TAFGGW
TAF
KGGW 190528Z 1906/2006 31010KT P6SM FEW250
     FM191400 31014KT P6SM FEW035
     FM191800 33020G30KT P6SM SCT090
     FM200300 34012KT P6SM SCT090=



000
FTUS45 KGGW 182300
TAFOLF
TAF
KOLF 182320Z 1900/1924 33019KT P6SM FEW110
     FM190600 28010KT P6SM SCT250
     FM191200 27011KT P6SM SCT050
     FM191800 33020G29KT P6SM SCT050=



000
FTUS45 KGGW 182300
TAFGGW
TAF
KGGW 182320Z 1900/1924 32021KT P6SM FEW230
     FM190600 32010KT P6SM FEW250
     FM191800 33020G28KT P6SM SCT090=



000
FTUS45 KGGW 182300
TAFSDY
TAF
KSDY 182320Z 1900/1924 33020KT P6SM FEW090
     FM191200 30017KT P6SM BKN090
      AMD LTD TO CLD VIS AND WIND=



000
FTUS45 KGGW 182300
TAFOLF
TAF
KOLF 182320Z 1900/1924 33019KT P6SM FEW110
     FM190600 28010KT P6SM SCT250
     FM191200 27011KT P6SM SCT050
     FM191800 33020G29KT P6SM SCT050=



000
FTUS45 KGGW 182300
TAFGDV
TAF
KGDV 182320Z 1900/1924 34021G29KT P6SM SCT240
     FM190600 32013KT P6SM FEW250
     FM191500 32019KT P6SM SCT050
      AMD LTD TO CLD VIS AND WIND=



000
FTUS45 KGGW 182300
TAFGDV
TAF
KGDV 182320Z 1900/1924 34021G29KT P6SM SCT240
     FM190600 32013KT P6SM FEW250
     FM191500 32019KT P6SM SCT050
      AMD LTD TO CLD VIS AND WIND=



000
FTUS45 KGGW 181700 RRA
TAFGDV
TAF
KGDV 181741Z 1818/1918 20016KT P6SM FEW100
     FM182000 33025G37KT P6SM BKN100
     FM182300 34020G30KT P6SM BKN110
     FM190600 32012KT P6SM FEW200
     FM191200 31015KT P6SM BKN100
      AMD LTD TO CLD VIS AND WIND=



000
FTUS45 KGGW 181700 RRA
TAFOLF
TAF
KOLF 181741Z 1818/1918 33021KT P6SM BKN100
     FM190500 30010KT P6SM FEW190
     FM191200 29013KT P6SM SCT045=



000
FTUS45 KGGW 181700 RRA
TAFGGW
TAF
KGGW 181741Z 1818/1918 34023G32KT P6SM SCT110
     FM190300 33014KT P6SM SCT250
     FM191200 31013KT P6SM SCT050=



000
FTUS45 KGGW 181700 RRA
TAFSDY
TAF
KSDY 181741Z 1818/1918 18016KT P6SM FEW100
     FM181900 33022G36KT P6SM BKN100
     FM190600 31013KT P6SM SCT120
     FM191200 30016KT P6SM BKN050
      AMD LTD TO CLD VIS AND WIND=



000
FTUS45 KGGW 181700 RRA
TAFOLF
TAF
KOLF 181741Z 1818/1918 33021KT P6SM BKN100
     FM190500 30010KT P6SM FEW190
     FM191200 29013KT P6SM SCT045=



000
FTUS45 KGGW 181700 RRA
TAFGDV
TAF
KGDV 181741Z 1818/1918 20016KT P6SM FEW100
     FM182000 33025G37KT P6SM BKN100
     FM182300 34020G30KT P6SM BKN110
     FM190600 32012KT P6SM FEW200
     FM191200 31015KT P6SM BKN100
      AMD LTD TO CLD VIS AND WIND=



000
FTUS45 KGGW 181100
TAFGDV
TAF
KGDV 181122Z 1812/1912 VRB06KT P6SM SCT200
     FM181800 34022G32KT P6SM VCSH BKN080
     FM190000 34020G30KT P6SM BKN170
     FM190600 32012KT P6SM FEW250
      AMD LTD TO CLD VIS AND WIND=



000
FTUS45 KGGW 181100
TAFGDV
TAF
KGDV 181122Z 1812/1912 VRB06KT P6SM SCT200
     FM181800 34022G32KT P6SM VCSH BKN080
     FM190000 34020G30KT P6SM BKN170
     FM190600 32012KT P6SM FEW250
      AMD LTD TO CLD VIS AND WIND=



000
FTUS45 KGGW 181100
TAFSDY
TAF
KSDY 181122Z 1812/1912 VRB06KT P6SM SCT200
     FM181600 31017KT P6SM SCT100
     FM181900 34024G34KT P6SM VCSH BKN070
     FM190300 33015KT P6SM SCT200
      AMD LTD TO CLD VIS AND WIND=



000
FTUS45 KGGW 181100
TAFOLF
TAF
KOLF 181122Z 1812/1912 VRB03KT P6SM SCT200
     FM181500 31013KT P6SM BKN100
     FM181700 34020G30KT P6SM BKN100
     FM190300 32011KT P6SM SCT250=



000
FTUS45 KGGW 181100
TAFOLF
TAF
KOLF 181122Z 1812/1912 VRB03KT P6SM SCT200
     FM181500 31013KT P6SM BKN100
     FM181700 34020G30KT P6SM BKN100
     FM190300 32011KT P6SM SCT250=



000
FTUS45 KGGW 181100
TAFGGW
TAF
KGGW 181122Z 1812/1912 VRB05KT P6SM SCT100
     FM181400 33014KT P6SM BKN090
     FM181700 34021G32KT P6SM SCT120
     FM190300 33011KT P6SM SCT250=



000
FTUS45 KGGW 181100
TAFSDY
TAF
KSDY 181122Z 1812/1912 VRB06KT P6SM SCT200
     FM181600 31017KT P6SM SCT100
     FM181900 34024G34KT P6SM VCSH BKN070
     FM190300 33015KT P6SM SCT200
      AMD LTD TO CLD VIS AND WIND=



000
FTUS45 KGGW 181100
TAFGDV
TAF
KGDV 181122Z 1812/1912 VRB06KT P6SM SCT200
     FM181800 34022G32KT P6SM VCSH BKN080
     FM190000 34020G30KT P6SM BKN170
     FM190600 32012KT P6SM FEW250
      AMD LTD TO CLD VIS AND WIND=



000
FTUS45 KGGW 181100
TAFGGW
TAF
KGGW 181122Z 1812/1912 VRB05KT P6SM SCT100
     FM181400 33014KT P6SM BKN090
     FM181700 34021G32KT P6SM SCT120
     FM190300 33011KT P6SM SCT250=



000
FTUS45 KGGW 181100
TAFGDV
TAF
KGDV 181122Z 1812/1912 VRB06KT P6SM SCT200
     FM181800 34022G32KT P6SM VCSH BKN080
     FM190000 34020G30KT P6SM BKN170
     FM190600 32012KT P6SM FEW250
      AMD LTD TO CLD VIS AND WIND=



000
FTUS45 KGGW 181100
TAFOLF
TAF
KOLF 181122Z 1812/1912 VRB03KT P6SM SCT200
     FM181500 31013KT P6SM BKN100
     FM181700 34020G30KT P6SM BKN100
     FM190300 32011KT P6SM SCT250=



000
FTUS45 KGGW 181100
TAFOLF
TAF
KOLF 181122Z 1812/1912 VRB03KT P6SM SCT200
     FM181500 31013KT P6SM BKN100
     FM181700 34020G30KT P6SM BKN100
     FM190300 32011KT P6SM SCT250=



000
FTUS45 KGGW 180500
TAFOLF
TAF
KOLF 180526Z 1806/1906 VRB06KT P6SM SKC
     FM181800 36022KT P6SM VCSH BKN050
     FM190200 33011KT P6SM SCT240=



000
FTUS45 KGGW 180500
TAFGDV
TAF
KGDV 180526Z 1806/1906 VRB04KT P6SM FEW250
     FM181500 20008KT P6SM SCT250
     FM181800 30013KT P6SM BKN250
     FM182100 32021G31KT P6SM BKN090
     FM190300 33015KT P6SM SCT200
      AMD LTD TO CLD VIS AND WIND=



000
FTUS45 KGGW 180500
TAFSDY
TAF
KSDY 180526Z 1806/1906 VRB06KT P6SM FEW250
     FM181500 20010KT P6SM SCT200
     FM181700 33014KT P6SM BKN200
     FM182000 33024G32KT P6SM BKN090
     FM190300 32014KT P6SM SCT200
      AMD LTD TO CLD VIS AND WIND=



000
FTUS45 KGGW 180500
TAFOLF
TAF
KOLF 180526Z 1806/1906 VRB06KT P6SM SKC
     FM181800 36022KT P6SM VCSH BKN050
     FM190200 33011KT P6SM SCT240=



000
FTUS45 KGGW 180500
TAFGGW
TAF
KGGW 180526Z 1806/1906 12008KT P6SM FEW250
     FM181200 VRB06KT P6SM BKN250
     FM181500 33014KT P6SM VCSH BKN060
     FM181800 34023G33KT P6SM BKN200
     FM190200 32012KT P6SM SCT230=



000
FTUS45 KGGW 180500
TAFGDV
TAF
KGDV 180526Z 1806/1906 VRB04KT P6SM FEW250
     FM181500 20008KT P6SM SCT250
     FM181800 30013KT P6SM BKN250
     FM182100 32021G31KT P6SM BKN090
     FM190300 33015KT P6SM SCT200
      AMD LTD TO CLD VIS AND WIND=



000
FTUS45 KGGW 180500
TAFOLF
TAF
KOLF 180526Z 1806/1906 VRB06KT P6SM SKC
     FM181800 36022KT P6SM VCSH BKN050
     FM190200 33011KT P6SM SCT240=



000
FTUS45 KGGW 180500
TAFGDV
TAF
KGDV 180526Z 1806/1906 VRB04KT P6SM FEW250
     FM181500 20008KT P6SM SCT250
     FM181800 30013KT P6SM BKN250
     FM182100 32021G31KT P6SM BKN090
     FM190300 33015KT P6SM SCT200
      AMD LTD TO CLD VIS AND WIND=



000
FTUS45 KGGW 180500
TAFOLF
TAF
KOLF 180526Z 1806/1906 VRB06KT P6SM SKC
     FM181800 36022KT P6SM VCSH BKN050
     FM190200 33011KT P6SM SCT240=



000
FTUS45 KGGW 180500
TAFGGW
TAF
KGGW 180526Z 1806/1906 12008KT P6SM FEW250
     FM181200 VRB06KT P6SM BKN250
     FM181500 33014KT P6SM VCSH BKN060
     FM181800 34023G33KT P6SM BKN200
     FM190200 32012KT P6SM SCT230=



000
FTUS45 KGGW 180500
TAFSDY
TAF
KSDY 180526Z 1806/1906 VRB06KT P6SM FEW250
     FM181500 20010KT P6SM SCT200
     FM181700 33014KT P6SM BKN200
     FM182000 33024G32KT P6SM BKN090
     FM190300 32014KT P6SM SCT200
      AMD LTD TO CLD VIS AND WIND=



000
FTUS45 KGGW 180500
TAFGDV
TAF
KGDV 180526Z 1806/1906 VRB04KT P6SM FEW250
     FM181500 20008KT P6SM SCT250
     FM181800 30013KT P6SM BKN250
     FM182100 32021G31KT P6SM BKN090
     FM190300 33015KT P6SM SCT200
      AMD LTD TO CLD VIS AND WIND=



    US Dept of Commerce
    National Oceanic and Atmospheric Administration
    National Weather Service
    1325 East West Highway
    Silver Spring, MD 20910
    Page Author: NWS Internet Services Team
Disclaimer
Information Quality
Credits
Glossary
Privacy Policy
Freedom of Information Act (FOIA)
About Us
Career Opportunities